createdAt,value
2023-06-01T00:00:08.280Z,10.02
2023-06-01T00:02:35.332Z,11.55
2023-06-01T00:05:02.741Z,13.55
2023-06-01T00:07:31.152Z,9.13
2023-06-01T00:09:58.225Z,10.52
2023-06-01T00:12:25.518Z,9.20
2023-06-01T00:14:52.560Z,13.18
2023-06-01T00:17:20.997Z,9.98
2023-06-01T00:19:49.002Z,17.23
2023-06-01T00:22:16.687Z,13.57
2023-06-01T00:24:43.735Z,18.90
2023-06-01T00:27:10.869Z,7.50
2023-06-01T00:29:37.923Z,8.43
2023-06-01T00:32:05.764Z,5.65
2023-06-01T00:34:34.158Z,20.30
2023-06-01T00:37:01.352Z,7.22
2023-06-01T00:39:28.383Z,13.55
2023-06-01T00:41:57.727Z,8.05
2023-06-01T00:44:25.668Z,12.35
2023-06-01T00:46:52.990Z,10.38
2023-06-01T00:49:20.146Z,16.23
2023-06-01T00:51:48.577Z,9.35
2023-06-01T00:54:16.045Z,6.63
2023-06-01T00:56:43.559Z,7.72
2023-06-01T00:59:11.067Z,13.63
2023-06-01T01:01:38.183Z,7.50
2023-06-01T01:04:05.413Z,6.32
2023-06-01T01:06:49.985Z,8.82
2023-06-01T01:09:27.435Z,8.95
2023-06-01T01:12:00.866Z,9.38
2023-06-01T01:14:36.748Z,7.90
2023-06-01T01:17:11.459Z,13.95
2023-06-01T01:19:54.640Z,13.40
2023-06-01T01:23:00.722Z,10.25
2023-06-01T01:28:25.237Z,10.95
2023-06-01T01:30:55.197Z,9.25
2023-06-01T01:33:22.792Z,10.07
2023-06-01T01:35:50.775Z,12.18
2023-06-01T01:38:17.774Z,10.23
2023-06-01T01:40:44.831Z,9.45
2023-06-01T01:43:12.265Z,9.90
2023-06-01T01:45:40.996Z,10.60
2023-06-01T01:48:18.696Z,8.20
2023-06-01T01:50:52.909Z,6.60
2023-06-01T01:53:24.361Z,17.17
2023-06-01T01:55:53.628Z,9.82
2023-06-01T01:58:20.838Z,6.97
2023-06-01T02:00:50.706Z,7.47
2023-06-01T02:03:18.621Z,10.52
2023-06-01T02:05:46.059Z,10.75
2023-06-01T02:08:13.467Z,13.32
2023-06-01T02:10:42.041Z,12.95
2023-06-01T02:13:09.089Z,9.75
2023-06-01T02:15:36.337Z,11.43
2023-06-01T02:18:04.982Z,4.32
2023-06-01T02:20:32.017Z,4.65
2023-06-01T02:22:59.838Z,11.05
2023-06-01T02:25:26.945Z,6.53
2023-06-01T02:27:53.988Z,7.25
2023-06-01T02:30:21.594Z,5.78
2023-06-01T02:32:49.661Z,10.70
2023-06-01T02:35:18.625Z,10.52
2023-06-01T02:37:45.657Z,7.72
2023-06-01T02:40:13.443Z,12.13
2023-06-01T02:42:41.250Z,6.68
2023-06-01T02:45:10.022Z,9.02
2023-06-01T02:47:37.052Z,14.73
2023-06-01T02:50:06.090Z,14.45
2023-06-01T02:52:37.299Z,7.68
2023-06-01T02:55:05.974Z,9.63
2023-06-01T02:57:53.185Z,11.07
2023-06-01T03:00:22.753Z,11.52
2023-06-01T03:02:50.408Z,4.70
2023-06-01T03:05:19.236Z,6.50
2023-06-01T03:07:54.771Z,5.50
2023-06-01T03:10:26.197Z,13.02
2023-06-01T03:12:59.638Z,10.90
2023-06-01T03:15:28.402Z,8.48
2023-06-01T03:17:55.661Z,7.75
2023-06-01T03:20:23.713Z,9.55
2023-06-01T03:22:50.855Z,7.60
2023-06-01T03:25:21.170Z,12.60
2023-06-01T03:27:48.300Z,11.13
2023-06-01T03:30:15.802Z,7.25
2023-06-01T03:32:44.731Z,7.32
2023-06-01T03:35:12.878Z,5.72
2023-06-01T03:37:43.233Z,6.40
2023-06-01T03:40:13.678Z,12.18
2023-06-01T03:42:46.855Z,7.35
2023-06-01T03:45:16.676Z,14.45
2023-06-01T03:47:44.291Z,13.38
2023-06-01T03:50:12.071Z,6.57
2023-06-01T03:52:39.775Z,8.93
2023-06-01T03:55:11.886Z,6.68
2023-06-01T03:58:04.151Z,8.43
2023-06-01T04:00:31.770Z,4.57
2023-06-01T04:03:02.668Z,10.52
2023-06-01T04:05:30.114Z,6.60
2023-06-01T04:07:57.994Z,7.75
2023-06-01T04:10:25.120Z,12.60
2023-06-01T04:12:53.088Z,10.07
2023-06-01T04:15:24.752Z,7.15
2023-06-01T04:17:51.993Z,12.32
2023-06-01T04:20:19.306Z,8.25
2023-06-01T04:22:47.385Z,10.20
2023-06-01T04:25:19.450Z,7.65
2023-06-01T04:27:48.820Z,5.75
2023-06-01T04:30:17.783Z,8.60
2023-06-01T04:32:49.810Z,8.05
2023-06-01T04:35:18.449Z,9.32
2023-06-01T04:37:45.959Z,11.38
2023-06-01T04:40:14.725Z,7.95
2023-06-01T04:42:56.929Z,13.15
2023-06-01T04:45:26.725Z,12.00
2023-06-01T04:47:58.467Z,6.10
2023-06-01T04:50:41.793Z,12.02
2023-06-01T04:53:08.835Z,11.23
2023-06-01T04:55:37.813Z,5.80
2023-06-01T04:58:06.578Z,7.47
2023-06-01T05:00:34.512Z,15.60
2023-06-01T05:03:04.021Z,6.93
2023-06-01T05:05:31.502Z,6.50
2023-06-01T05:07:58.579Z,9.20
2023-06-01T05:10:25.990Z,12.27
2023-06-01T05:12:53.368Z,16.95
2023-06-01T05:15:20.748Z,5.53
2023-06-01T05:17:50.874Z,6.53
2023-06-01T05:20:21.707Z,7.93
2023-06-01T05:22:53.988Z,11.30
2023-06-01T05:25:21.202Z,9.85
2023-06-01T05:27:48.318Z,12.93
2023-06-01T05:30:15.736Z,13.70
2023-06-01T05:32:44.696Z,13.05
2023-06-01T05:35:15.922Z,9.00
2023-06-01T05:37:46.922Z,8.25
2023-06-01T05:40:14.441Z,8.45
2023-06-01T05:42:41.502Z,13.70
2023-06-01T05:45:10.717Z,9.00
2023-06-01T05:47:37.764Z,5.72
2023-06-01T05:50:06.613Z,9.35
2023-06-01T05:52:34.184Z,18.90
2023-06-01T05:55:05.435Z,11.88
2023-06-01T05:57:32.687Z,18.42
2023-06-01T06:00:02.014Z,18.90
2023-06-01T06:02:30.498Z,14.73
2023-06-01T06:04:57.597Z,12.75
2023-06-01T06:07:24.599Z,13.43
2023-06-01T06:09:54.243Z,10.15
2023-06-01T06:12:25.318Z,9.32
2023-06-01T06:14:55.404Z,10.27
2023-06-01T06:17:22.578Z,10.98
2023-06-01T06:19:50.583Z,11.13
2023-06-01T06:22:17.703Z,14.25
2023-06-01T06:24:44.876Z,10.52
2023-06-01T06:27:14.018Z,13.57
2023-06-01T06:29:42.760Z,8.88
2023-06-01T06:32:10.605Z,11.65
2023-06-01T06:34:37.708Z,13.05
2023-06-01T06:37:06.337Z,8.07
2023-06-01T06:39:33.411Z,13.77
2023-06-01T06:42:02.193Z,10.25
2023-06-01T06:44:29.246Z,10.35
2023-06-01T06:47:02.798Z,11.63
2023-06-01T06:49:30.207Z,8.50
2023-06-01T06:52:00.281Z,7.47
2023-06-01T06:54:30.032Z,12.13
2023-06-01T06:57:00.074Z,10.82
2023-06-01T06:59:27.252Z,11.40
2023-06-01T07:01:54.287Z,7.93
2023-06-01T07:04:23.612Z,11.23
2023-06-01T07:06:52.069Z,8.75
2023-06-01T07:09:19.705Z,12.93
2023-06-01T07:11:48.754Z,14.20
2023-06-01T07:14:16.033Z,8.43
2023-06-01T07:16:43.115Z,14.00
2023-06-01T07:19:10.725Z,10.82
2023-06-01T07:21:43.156Z,8.52
2023-06-01T07:24:13.225Z,9.05
2023-06-01T07:26:40.989Z,14.55
2023-06-01T07:29:07.998Z,12.95
2023-06-01T07:31:36.472Z,7.82
2023-06-01T07:34:03.819Z,10.02
2023-06-01T07:36:38.015Z,11.15
2023-06-01T07:39:07.711Z,11.15
2023-06-01T07:41:34.827Z,24.65
2023-06-01T07:44:02.087Z,9.75
2023-06-01T07:46:29.147Z,12.70
2023-06-01T07:48:56.477Z,7.70
2023-06-01T07:51:23.564Z,9.52
2023-06-01T07:53:51.087Z,7.13
2023-06-01T07:56:19.647Z,9.82
2023-06-01T07:58:46.725Z,7.50
2023-06-01T08:01:14.954Z,10.25
2023-06-01T08:03:46.863Z,6.20
2023-06-01T08:06:14.738Z,11.10
2023-06-01T08:08:41.842Z,8.80
2023-06-01T08:11:10.124Z,8.27
2023-06-01T08:13:39.019Z,7.10
2023-06-01T08:16:06.690Z,11.10
2023-06-01T08:18:34.245Z,7.72
2023-06-01T08:21:05.343Z,10.32
2023-06-01T08:23:32.559Z,8.30
2023-06-01T08:25:59.850Z,6.88
2023-06-01T08:28:27.708Z,8.32
2023-06-01T08:30:57.411Z,9.65
2023-06-01T08:33:24.514Z,9.15
2023-06-01T08:35:51.550Z,9.73
2023-06-01T08:38:18.595Z,5.53
2023-06-01T08:40:46.498Z,6.30
2023-06-01T08:43:18.630Z,5.97
2023-06-01T08:45:48.172Z,7.47
2023-06-01T08:48:19.200Z,9.23
2023-06-01T08:50:50.325Z,13.30
2023-06-01T08:53:19.789Z,6.40
2023-06-01T08:55:49.960Z,7.72
2023-06-01T08:58:17.164Z,9.15
2023-06-01T09:00:44.715Z,7.63
2023-06-01T09:03:13.229Z,11.18
2023-06-01T09:05:41.802Z,9.63
2023-06-01T09:08:09.290Z,9.75
2023-06-01T09:10:36.574Z,12.73
2023-06-01T09:13:04.465Z,5.38
2023-06-01T09:15:34.616Z,6.03
2023-06-01T09:18:09.150Z,5.38
2023-06-01T09:20:38.386Z,6.22
2023-06-01T09:23:06.869Z,8.02
2023-06-01T09:25:34.563Z,9.13
2023-06-01T09:28:03.486Z,6.25
2023-06-01T09:30:40.113Z,6.97
2023-06-01T09:33:15.800Z,5.22
2023-06-01T09:35:44.723Z,6.53
2023-06-01T09:38:21.153Z,9.85
2023-06-01T09:41:00.299Z,4.50
2023-06-01T09:43:27.907Z,5.15
2023-06-01T09:46:09.282Z,4.97
2023-06-01T09:48:38.035Z,8.85
2023-06-01T09:51:06.140Z,10.70
2023-06-01T09:53:44.888Z,5.57
2023-06-01T09:56:12.263Z,6.53
2023-06-01T09:58:41.934Z,6.53
2023-06-01T10:01:10.208Z,4.80
2023-06-01T10:03:42.681Z,4.03
2023-06-01T10:06:11.959Z,5.70
2023-06-01T10:08:43.622Z,8.30
2023-06-01T10:11:10.868Z,8.68
2023-06-01T10:13:39.980Z,5.57
2023-06-01T10:16:10.536Z,5.95
2023-06-01T10:18:38.102Z,7.35
2023-06-01T10:21:07.713Z,11.02
2023-06-01T10:23:35.798Z,6.40
2023-06-01T10:26:12.371Z,7.28
2023-06-01T10:28:43.194Z,6.32
2023-06-01T10:31:39.813Z,6.38
2023-06-01T10:34:09.496Z,4.07
2023-06-01T10:37:15.981Z,4.78
2023-06-01T10:39:43.348Z,7.45
2023-06-01T10:42:37.505Z,5.95
2023-06-01T10:45:06.669Z,9.07
2023-06-01T10:47:47.363Z,8.50
2023-06-01T10:50:19.594Z,8.05
2023-06-01T10:52:47.244Z,5.93
2023-06-01T10:55:26.648Z,5.80
2023-06-01T10:58:25.334Z,5.32
2023-06-01T11:00:56.684Z,8.82
2023-06-01T11:03:47.081Z,5.05
2023-06-01T11:06:26.988Z,6.97
2023-06-01T11:08:59.797Z,8.13
2023-06-01T11:11:59.709Z,6.47
2023-06-01T11:14:32.103Z,6.10
2023-06-01T11:17:27.812Z,8.05
2023-06-01T11:19:58.817Z,8.38
2023-06-01T11:22:26.175Z,8.30
2023-06-01T11:24:56.459Z,5.07
2023-06-01T11:27:24.895Z,11.23
2023-06-01T11:29:53.630Z,8.00
2023-06-01T11:32:23.601Z,5.80
2023-06-01T11:34:52.435Z,11.00
2023-06-01T11:37:20.666Z,6.07
2023-06-01T11:39:49.104Z,9.80
2023-06-01T11:42:19.743Z,4.22
2023-06-01T11:45:00.977Z,5.75
2023-06-01T11:47:32.210Z,6.85
2023-06-01T11:49:59.819Z,6.38
2023-06-01T11:52:27.155Z,11.27
2023-06-01T11:54:54.230Z,9.93
2023-06-01T11:57:21.316Z,18.33
2023-06-01T11:59:53.263Z,15.00
2023-06-01T12:02:31.499Z,11.75
2023-06-01T12:05:07.184Z,8.02
2023-06-01T12:07:45.345Z,10.10
2023-06-01T12:10:15.636Z,7.32
2023-06-01T12:12:44.439Z,8.00
2023-06-01T12:15:12.594Z,12.60
2023-06-01T12:17:57.915Z,9.02
2023-06-01T12:20:34.952Z,9.13
2023-06-01T12:23:06.506Z,10.90
2023-06-01T12:25:34.117Z,9.65
2023-06-01T12:28:05.847Z,6.22
2023-06-01T12:30:35.982Z,7.15
2023-06-01T12:33:05.789Z,7.30
2023-06-01T12:35:34.462Z,11.57
2023-06-01T12:38:13.705Z,8.70
2023-06-01T12:40:41.233Z,5.35
2023-06-01T12:43:20.202Z,10.85
2023-06-01T12:45:49.405Z,5.40
2023-06-01T12:48:31.037Z,5.70
2023-06-01T12:50:59.617Z,3.67
2023-06-01T12:53:27.038Z,8.02
2023-06-01T12:55:54.334Z,5.82
2023-06-01T12:58:21.430Z,7.13
2023-06-01T13:00:57.205Z,5.25
2023-06-01T13:03:25.498Z,7.72
2023-06-01T13:05:53.667Z,4.50
2023-06-01T13:08:23.290Z,7.57
2023-06-01T13:10:51.537Z,5.88
2023-06-01T13:13:18.720Z,6.35
2023-06-01T13:15:46.699Z,5.97
2023-06-01T13:18:14.236Z,9.57
2023-06-01T13:20:41.364Z,10.15
2023-06-01T13:23:09.211Z,7.38
2023-06-01T13:25:39.212Z,4.72
2023-06-01T13:28:07.619Z,12.45
2023-06-01T13:30:34.919Z,7.10
2023-06-01T13:33:02.848Z,8.98
2023-06-01T13:35:29.869Z,7.00
2023-06-01T13:37:57.065Z,20.85
2023-06-01T13:40:25.384Z,4.72
2023-06-01T13:42:54.826Z,4.82
2023-06-01T13:45:22.693Z,5.88
2023-06-01T13:47:51.517Z,5.70
2023-06-01T13:50:19.106Z,7.18
2023-06-01T13:52:47.261Z,7.97
2023-06-01T13:55:15.916Z,8.43
2023-06-01T13:57:43.143Z,8.13
2023-06-01T14:00:13.300Z,9.65
2023-06-01T14:02:46.382Z,8.80
2023-06-01T14:05:19.959Z,8.93
2023-06-01T14:07:50.958Z,15.05
2023-06-01T14:10:18.565Z,12.38
2023-06-01T14:12:46.386Z,9.50
2023-06-01T14:15:14.972Z,11.65
2023-06-01T14:17:42.150Z,6.82
2023-06-01T14:20:10.428Z,6.85
2023-06-01T14:22:37.457Z,8.30
2023-06-01T14:25:05.394Z,6.85
2023-06-01T14:27:32.448Z,6.82
2023-06-01T14:30:01.985Z,6.20
2023-06-01T14:32:31.329Z,5.35
2023-06-01T14:34:58.779Z,7.03
2023-06-01T14:37:29.623Z,9.98
2023-06-01T14:40:06.287Z,9.05
2023-06-01T14:42:33.283Z,7.50
2023-06-01T14:45:06.019Z,6.72
2023-06-01T14:47:35.271Z,7.80
2023-06-01T14:50:02.434Z,7.03
2023-06-01T14:52:29.608Z,27.75
2023-06-01T14:54:56.629Z,13.45
2023-06-01T14:57:23.912Z,13.43
2023-06-01T15:00:02.573Z,10.07
2023-06-01T15:02:31.529Z,8.57
2023-06-01T15:05:00.011Z,10.85
2023-06-01T15:07:27.300Z,20.00
2023-06-01T15:09:54.614Z,12.55
2023-06-01T15:12:21.933Z,10.55
2023-06-01T15:14:50.993Z,16.02
2023-06-01T15:17:18.431Z,14.27
2023-06-01T15:19:46.559Z,6.65
2023-06-01T15:22:15.278Z,7.80
2023-06-01T15:24:42.623Z,10.40
2023-06-01T15:27:09.682Z,8.60
2023-06-01T15:29:36.946Z,9.25
2023-06-01T15:32:04.507Z,18.75
2023-06-01T15:34:31.654Z,9.85
2023-06-01T15:36:58.895Z,9.55
2023-06-01T15:39:27.390Z,28.50
2023-06-01T15:44:24.703Z,18.95
2023-06-01T15:46:52.162Z,10.63
2023-06-01T15:49:19.644Z,10.60
2023-06-01T15:51:46.857Z,34.40
2023-06-01T15:54:13.907Z,34.35
2023-06-01T15:59:10.918Z,44.95
2023-06-01T16:01:38.187Z,44.05
2023-06-01T16:04:05.775Z,30.58
2023-06-01T16:06:33.251Z,21.67
2023-06-01T16:09:00.410Z,40.00
2023-06-01T16:11:27.693Z,53.25
2023-06-01T16:13:56.075Z,70.13
2023-06-01T16:16:23.303Z,57.38
2023-06-01T16:18:50.396Z,51.42
2023-06-01T16:21:17.560Z,44.28
2023-06-01T16:23:44.822Z,30.52
2023-06-01T16:26:12.097Z,94.22
2023-06-01T16:28:39.208Z,74.40
2023-06-01T16:31:07.682Z,71.03
2023-06-01T16:33:34.714Z,56.42
2023-06-01T16:36:01.828Z,36.03
2023-06-01T16:38:28.886Z,28.00
2023-06-01T16:40:56.030Z,25.88
2023-06-01T16:43:23.034Z,24.75
2023-06-01T16:45:50.238Z,21.20
2023-06-01T16:48:18.729Z,42.72
2023-06-01T16:50:47.009Z,31.77
2023-06-01T16:53:17.135Z,16.88
2023-06-01T16:55:44.282Z,20.00
2023-06-01T16:58:11.422Z,42.25
2023-06-01T17:00:38.705Z,20.30
2023-06-01T17:03:05.884Z,13.18
2023-06-01T17:05:35.161Z,14.63
2023-06-01T17:08:02.230Z,45.70
2023-06-01T17:10:29.349Z,10.07
2023-06-01T17:12:56.452Z,13.18
2023-06-01T17:15:23.501Z,9.32
2023-06-01T17:17:50.797Z,13.20
2023-06-01T17:20:17.875Z,10.68
2023-06-01T17:22:46.612Z,32.55
2023-06-01T17:25:13.766Z,15.70
2023-06-01T17:27:49.065Z,10.40
2023-06-01T17:30:16.338Z,5.53
2023-06-01T17:32:43.830Z,5.72
2023-06-01T17:35:10.987Z,8.43
2023-06-01T17:37:38.201Z,12.07
2023-06-01T17:40:08.255Z,18.30
2023-06-01T17:42:35.492Z,10.68
2023-06-01T17:45:02.576Z,12.98
2023-06-01T17:47:29.864Z,9.93
2023-06-01T17:49:56.961Z,14.20
2023-06-01T17:52:23.968Z,15.68
2023-06-01T17:54:51.022Z,14.45
2023-06-01T17:57:19.533Z,88.13
2023-06-01T17:59:46.624Z,28.35
2023-06-01T18:02:13.730Z,19.90
2023-06-01T18:04:40.784Z,11.10
2023-06-01T18:07:08.238Z,16.52
2023-06-01T18:09:35.252Z,14.98
2023-06-01T18:12:02.638Z,18.05
2023-06-01T18:14:31.248Z,19.08
2023-06-01T18:16:58.301Z,26.38
2023-06-01T18:19:25.659Z,16.40
2023-06-01T18:21:52.939Z,20.23
2023-06-01T18:24:22.942Z,16.25
2023-06-01T18:26:51.256Z,15.07
2023-06-01T18:29:18.316Z,10.43
2023-06-01T18:31:47.198Z,20.00
2023-06-01T18:34:14.363Z,10.70
2023-06-01T18:36:41.418Z,10.27
2023-06-01T18:39:13.034Z,8.13
2023-06-01T18:41:42.454Z,8.55
2023-06-01T18:44:12.766Z,7.65
2023-06-01T18:46:39.814Z,10.07
2023-06-01T18:49:08.865Z,16.25
2023-06-01T18:51:36.945Z,10.10
2023-06-01T18:54:06.248Z,11.85
2023-06-01T18:56:33.347Z,11.20
2023-06-01T18:59:00.546Z,13.02
2023-06-01T19:01:29.795Z,11.00
2023-06-01T19:03:56.917Z,14.02
2023-06-01T19:06:25.448Z,16.30
2023-06-01T19:08:52.945Z,18.55
2023-06-01T19:11:20.048Z,17.00
2023-06-01T19:13:48.224Z,16.02
2023-06-01T19:16:17.380Z,12.20
2023-06-01T19:18:48.868Z,15.73
2023-06-01T19:21:18.632Z,17.52
2023-06-01T19:23:49.277Z,18.88
2023-06-01T19:26:19.934Z,12.35
2023-06-01T19:28:50.601Z,10.60
2023-06-01T19:31:21.746Z,12.23
2023-06-01T19:33:49.671Z,13.20
2023-06-01T19:36:53.903Z,16.13
2023-06-01T19:39:36.241Z,11.20
2023-06-01T19:42:08.716Z,11.20
2023-06-01T19:44:36.488Z,10.68
2023-06-01T19:47:04.645Z,12.32
2023-06-01T19:49:36.977Z,13.15
2023-06-01T19:52:08.129Z,16.88
2023-06-01T19:54:37.803Z,17.13
2023-06-01T19:57:06.578Z,13.80
2023-06-01T19:59:33.842Z,12.85
2023-06-01T20:02:02.446Z,14.38
2023-06-01T20:04:32.121Z,14.45
2023-06-01T20:07:01.178Z,12.40
2023-06-01T20:09:28.210Z,21.27
2023-06-01T20:11:57.794Z,11.52
2023-06-01T20:14:27.742Z,17.63
2023-06-01T20:16:55.550Z,16.20
2023-06-01T20:19:24.097Z,12.63
2023-06-01T20:21:53.653Z,12.00
2023-06-01T20:24:24.414Z,11.75
2023-06-01T20:26:58.203Z,12.32
2023-06-01T20:29:27.340Z,12.23
2023-06-01T20:31:56.628Z,8.73
2023-06-01T20:34:25.466Z,13.23
2023-06-01T20:36:52.925Z,13.63
2023-06-01T20:39:20.829Z,13.70
2023-06-01T20:41:48.719Z,11.63
2023-06-01T20:44:18.849Z,16.58
2023-06-01T20:46:46.979Z,8.80
2023-06-01T20:49:14.037Z,7.88
2023-06-01T20:51:42.637Z,12.27
2023-06-01T20:54:11.434Z,8.63
2023-06-01T20:56:40.367Z,11.43
2023-06-01T20:59:10.276Z,8.75
2023-06-01T21:01:41.210Z,10.88
2023-06-01T21:04:10.210Z,10.45
2023-06-01T21:06:37.742Z,11.00
2023-06-01T21:09:07.719Z,14.40
2023-06-01T21:11:35.125Z,11.85
2023-06-01T21:14:02.497Z,9.95
2023-06-01T21:16:29.786Z,6.72
2023-06-01T21:18:58.352Z,12.77
2023-06-01T21:21:25.609Z,10.70
2023-06-01T21:23:54.132Z,9.63
2023-06-01T21:26:25.321Z,9.07
2023-06-01T21:28:53.152Z,11.18
2023-06-01T21:31:21.463Z,12.05
2023-06-01T21:33:48.636Z,15.57
2023-06-01T21:36:17.207Z,9.07
2023-06-01T21:38:44.667Z,7.82
2023-06-01T21:41:12.109Z,7.95
2023-06-01T21:43:39.230Z,9.13
2023-06-01T21:46:06.892Z,10.00
2023-06-01T21:48:34.210Z,9.23
2023-06-01T21:51:01.590Z,8.30
2023-06-01T21:53:30.422Z,11.05
2023-06-01T21:55:57.865Z,16.95
2023-06-01T21:58:25.659Z,8.02
2023-06-01T22:00:53.849Z,10.38
2023-06-01T22:03:22.611Z,7.68
2023-06-01T22:05:51.570Z,15.60
2023-06-01T22:08:18.893Z,10.48
2023-06-01T22:10:47.369Z,11.70
2023-06-01T22:13:14.481Z,18.15
2023-06-01T22:15:41.744Z,11.70
2023-06-01T22:18:09.334Z,16.33
2023-06-01T22:20:36.532Z,17.20
2023-06-01T22:23:04.049Z,9.45
2023-06-01T22:25:31.398Z,12.15
2023-06-01T22:27:59.892Z,8.98
2023-06-01T22:30:29.185Z,11.30
2023-06-01T22:32:56.593Z,12.23
2023-06-01T22:35:23.870Z,15.88
2023-06-01T22:37:51.018Z,9.02
2023-06-01T22:40:18.106Z,7.95
2023-06-01T22:42:45.290Z,9.18
2023-06-01T22:45:14.168Z,9.90
2023-06-01T22:47:41.343Z,6.43
2023-06-01T22:50:10.668Z,6.47
2023-06-01T22:52:39.424Z,10.38
2023-06-01T22:55:07.296Z,9.63
2023-06-01T22:57:37.829Z,12.05
2023-06-01T23:00:08.687Z,13.20
2023-06-01T23:02:37.419Z,8.38
2023-06-01T23:05:06.302Z,12.52
2023-06-01T23:07:33.664Z,10.27
2023-06-01T23:10:01.406Z,12.70
2023-06-01T23:12:28.818Z,12.40
2023-06-01T23:14:56.407Z,10.82
2023-06-01T23:17:25.386Z,11.55
2023-06-01T23:19:54.048Z,10.35
2023-06-01T23:22:21.743Z,8.68
2023-06-01T23:24:48.983Z,10.32
2023-06-01T23:27:16.198Z,10.18
2023-06-01T23:29:43.469Z,8.68
2023-06-01T23:32:10.986Z,9.15
2023-06-01T23:34:38.284Z,9.55
2023-06-01T23:37:07.025Z,10.15
2023-06-01T23:39:34.151Z,9.23
2023-06-01T23:42:01.334Z,10.57
2023-06-01T23:44:28.600Z,9.77
2023-06-01T23:46:55.690Z,10.88
2023-06-01T23:49:22.773Z,12.65
2023-06-01T23:51:50.169Z,8.07
2023-06-01T23:54:18.656Z,7.55
2023-06-01T23:56:45.784Z,11.00
2023-06-01T23:59:13.588Z,9.77
